createdAt,value
2018-07-19T00:00:06.415Z,96683.00
2018-07-19T00:02:36.086Z,96681.00
2018-07-19T00:05:08.802Z,96679.00
2018-07-19T00:07:37.904Z,96675.00
2018-07-19T00:10:06.829Z,96676.00
2018-07-19T00:12:40.775Z,96680.00
2018-07-19T00:15:10.621Z,96683.00
2018-07-19T00:17:42.558Z,96680.00
2018-07-19T00:20:12.480Z,96682.00
2018-07-19T00:22:41.863Z,96684.00
2018-07-19T00:25:13.175Z,96688.00
2018-07-19T00:27:43.878Z,96683.00
2018-07-19T00:30:16.671Z,96685.00
2018-07-19T00:32:46.167Z,96688.00
2018-07-19T00:35:15.640Z,96682.00
2018-07-19T00:37:44.841Z,96681.00
2018-07-19T00:40:13.476Z,96690.00
2018-07-19T00:42:43.469Z,96700.00
2018-07-19T00:45:12.465Z,96696.00
2018-07-19T00:47:41.357Z,96697.00
2018-07-19T00:50:16.215Z,96689.00
2018-07-19T00:52:44.430Z,96695.00
2018-07-19T00:55:12.358Z,96693.00
2018-07-19T00:57:40.296Z,96692.00
2018-07-19T01:00:08.309Z,96689.00
2018-07-19T01:02:36.239Z,96701.00
2018-07-19T01:05:04.242Z,96686.00
2018-07-19T01:07:32.157Z,96694.00
2018-07-19T01:10:00.079Z,96697.00
2018-07-19T01:12:28.044Z,96699.00
2018-07-19T01:14:56.016Z,96693.00
2018-07-19T01:17:23.946Z,96697.00
2018-07-19T01:19:52.061Z,96702.00
2018-07-19T01:22:20.000Z,96693.00
2018-07-19T01:24:47.977Z,96701.00
2018-07-19T01:27:15.923Z,96706.00
2018-07-19T01:29:43.863Z,96702.00
2018-07-19T01:32:34.551Z,96699.00
2018-07-19T01:35:13.440Z,96694.00
2018-07-19T01:37:41.423Z,96698.00
2018-07-19T01:40:09.339Z,96690.00
2018-07-19T01:42:44.385Z,96693.00
2018-07-19T01:45:12.994Z,96687.00
2018-07-19T01:47:41.128Z,96689.00
2018-07-19T01:50:09.953Z,96694.00
2018-07-19T01:52:38.092Z,96685.00
2018-07-19T01:55:06.503Z,96680.00
2018-07-19T01:57:34.478Z,96680.00
2018-07-19T02:00:02.422Z,96672.00
2018-07-19T02:02:30.394Z,96667.00
2018-07-19T02:04:58.366Z,96670.00
2018-07-19T02:07:26.320Z,96672.00
2018-07-19T02:09:54.244Z,96672.00
2018-07-19T02:12:22.219Z,96672.00
2018-07-19T02:14:50.165Z,96670.00
2018-07-19T02:17:18.266Z,96677.00
2018-07-19T02:19:46.207Z,96680.00
2018-07-19T02:22:14.176Z,96677.00
2018-07-19T02:24:42.099Z,96675.00
2018-07-19T02:27:10.058Z,96671.00
2018-07-19T02:29:37.972Z,96676.00
2018-07-19T02:32:05.967Z,96671.00
2018-07-19T02:34:33.916Z,96670.00
2018-07-19T02:37:01.884Z,96666.00
2018-07-19T02:39:29.800Z,96671.00
2018-07-19T02:41:57.804Z,96677.00
2018-07-19T02:44:25.776Z,96678.00
2018-07-19T02:46:53.733Z,96677.00
2018-07-19T02:49:21.665Z,96676.00
2018-07-19T02:51:49.635Z,96679.00
2018-07-19T02:54:17.601Z,96674.00
2018-07-19T02:56:45.572Z,96669.00
2018-07-19T02:59:13.523Z,96658.00
2018-07-19T03:01:41.493Z,96674.00
2018-07-19T03:04:09.447Z,96667.00
2018-07-19T03:06:37.570Z,96671.00
2018-07-19T03:09:06.685Z,96676.00
2018-07-19T03:11:34.791Z,96674.00
2018-07-19T03:14:02.846Z,96673.00
2018-07-19T03:16:30.847Z,96679.00
2018-07-19T03:18:58.901Z,96674.00
2018-07-19T03:21:26.877Z,96682.00
2018-07-19T03:23:54.837Z,96677.00
2018-07-19T03:26:22.810Z,96682.00
2018-07-19T03:28:50.749Z,96680.00
2018-07-19T03:31:18.776Z,96672.00
2018-07-19T03:33:46.734Z,96671.00
2018-07-19T03:36:37.425Z,96680.00
2018-07-19T03:39:07.843Z,96682.00
2018-07-19T03:41:35.814Z,96677.00
2018-07-19T03:44:04.181Z,96681.00
2018-07-19T03:46:32.170Z,96673.00
2018-07-19T03:49:00.114Z,96679.00
2018-07-19T03:51:28.102Z,96675.00
2018-07-19T03:53:56.091Z,96677.00
2018-07-19T03:56:24.106Z,96671.00
2018-07-19T03:58:52.048Z,96668.00
2018-07-19T04:01:20.071Z,96674.00
2018-07-19T04:03:48.052Z,96678.00
2018-07-19T04:06:16.018Z,96678.00
2018-07-19T04:08:44.068Z,96668.00
2018-07-19T04:11:12.047Z,96669.00
2018-07-19T04:13:40.009Z,96677.00
2018-07-19T04:16:07.982Z,96671.00
2018-07-19T04:18:35.939Z,96673.00
2018-07-19T04:21:04.002Z,96672.00
2018-07-19T04:23:31.964Z,96681.00
2018-07-19T04:25:59.946Z,96676.00
2018-07-19T04:28:27.893Z,96672.00
2018-07-19T04:30:55.830Z,96679.00
2018-07-19T04:33:23.819Z,96684.00
2018-07-19T04:35:51.754Z,96676.00
2018-07-19T04:38:19.796Z,96681.00
2018-07-19T04:40:47.653Z,96685.00
2018-07-19T04:43:15.597Z,96684.00
2018-07-19T04:45:43.533Z,96682.00
2018-07-19T04:48:11.544Z,96688.00
2018-07-19T04:50:39.429Z,96692.00
2018-07-19T04:53:07.383Z,96688.00
2018-07-19T04:55:35.327Z,96689.00
2018-07-19T04:58:03.311Z,96691.00
2018-07-19T05:00:31.265Z,96693.00
2018-07-19T05:02:59.206Z,96691.00
2018-07-19T05:05:27.165Z,96693.00
2018-07-19T05:07:55.102Z,96696.00
2018-07-19T05:10:23.044Z,96695.00
2018-07-19T05:12:51.010Z,96691.00
2018-07-19T05:15:18.934Z,96691.00
2018-07-19T05:17:46.873Z,96693.00
2018-07-19T05:20:14.881Z,96688.00
2018-07-19T05:22:42.839Z,96688.00
2018-07-19T05:25:10.807Z,96688.00
2018-07-19T05:27:38.729Z,96693.00
2018-07-19T05:30:06.714Z,96701.00
2018-07-19T05:32:34.667Z,96701.00
2018-07-19T05:35:02.661Z,96691.00
2018-07-19T05:37:30.590Z,96705.00
2018-07-19T05:39:58.559Z,96711.00
2018-07-19T05:42:26.553Z,96705.00
2018-07-19T05:44:54.428Z,96707.00
2018-07-19T05:47:22.401Z,96709.00
2018-07-19T05:49:50.311Z,96711.00
2018-07-19T05:52:18.284Z,96705.00
2018-07-19T05:54:46.212Z,96702.00
2018-07-19T05:57:14.127Z,96703.00
2018-07-19T05:59:42.091Z,96701.00
2018-07-19T06:02:10.392Z,96705.00
2018-07-19T06:04:38.341Z,96710.00
2018-07-19T06:07:06.271Z,96713.00
2018-07-19T06:09:34.269Z,96703.00
2018-07-19T06:12:02.209Z,96710.00
2018-07-19T06:14:30.166Z,96706.00
2018-07-19T06:16:58.169Z,96705.00
2018-07-19T06:19:26.139Z,96704.00
2018-07-19T06:21:54.081Z,96701.00
2018-07-19T06:24:22.018Z,96705.00
2018-07-19T06:26:49.931Z,96701.00
2018-07-19T06:29:17.881Z,96700.00
2018-07-19T06:31:45.817Z,96705.00
2018-07-19T06:34:13.773Z,96706.00
2018-07-19T06:36:41.732Z,96717.00
2018-07-19T06:39:09.959Z,96711.00
2018-07-19T06:41:38.018Z,96709.00
2018-07-19T06:44:05.943Z,96714.00
2018-07-19T06:46:33.904Z,96717.00
2018-07-19T06:49:01.800Z,96716.00
2018-07-19T06:51:29.735Z,96710.00
2018-07-19T06:53:57.695Z,96712.00
2018-07-19T06:56:25.621Z,96714.00
2018-07-19T06:58:53.570Z,96709.00
2018-07-19T07:01:21.503Z,96709.00
2018-07-19T07:03:49.449Z,96712.00
2018-07-19T07:06:17.362Z,96717.00
2018-07-19T07:08:45.415Z,96718.00
2018-07-19T07:11:13.402Z,96716.00
2018-07-19T07:13:41.310Z,96715.00
2018-07-19T07:16:09.300Z,96720.00
2018-07-19T07:18:37.211Z,96721.00
2018-07-19T07:21:05.202Z,96714.00
2018-07-19T07:23:33.122Z,96715.00
2018-07-19T07:26:01.044Z,96723.00
2018-07-19T07:28:29.037Z,96723.00
2018-07-19T07:30:56.953Z,96723.00
2018-07-19T07:33:24.864Z,96734.00
2018-07-19T07:35:52.815Z,96735.00
2018-07-19T07:38:20.734Z,96736.00
2018-07-19T07:40:48.879Z,96726.00
2018-07-19T07:43:16.795Z,96724.00
2018-07-19T07:45:44.728Z,96724.00
2018-07-19T07:48:12.684Z,96720.00
2018-07-19T07:50:40.607Z,96719.00
2018-07-19T07:53:08.580Z,96724.00
2018-07-19T07:55:36.520Z,96722.00
2018-07-19T07:58:04.477Z,96720.00
2018-07-19T08:00:32.507Z,96722.00
2018-07-19T08:03:00.432Z,96720.00
2018-07-19T08:05:28.420Z,96718.00
2018-07-19T08:07:56.357Z,96717.00
2018-07-19T08:10:24.292Z,96725.00
2018-07-19T08:12:52.294Z,96718.00
2018-07-19T08:15:20.271Z,96721.00
2018-07-19T08:17:48.209Z,96727.00
2018-07-19T08:20:16.098Z,96730.00
2018-07-19T08:22:44.053Z,96721.00
2018-07-19T08:25:11.955Z,96729.00
2018-07-19T08:27:39.908Z,96729.00
2018-07-19T08:30:07.866Z,96726.00
2018-07-19T08:32:35.934Z,96713.00
2018-07-19T08:35:04.373Z,96712.00
2018-07-19T08:37:32.301Z,96718.00
2018-07-19T08:40:00.259Z,96718.00
2018-07-19T08:42:28.206Z,96721.00
2018-07-19T08:44:56.140Z,96716.00
2018-07-19T08:47:24.090Z,96720.00
2018-07-19T08:49:52.014Z,96722.00
2018-07-19T08:52:19.956Z,96719.00
2018-07-19T08:54:47.898Z,96723.00
2018-07-19T08:57:16.240Z,96728.00
2018-07-19T08:59:44.173Z,96727.00
2018-07-19T09:02:12.168Z,96725.00
2018-07-19T09:04:40.227Z,96723.00
2018-07-19T09:07:08.190Z,96729.00
2018-07-19T09:09:36.147Z,96723.00
2018-07-19T09:12:04.133Z,96719.00
2018-07-19T09:14:32.087Z,96719.00
2018-07-19T09:16:59.992Z,96726.00
2018-07-19T09:19:27.955Z,96721.00
2018-07-19T09:21:55.891Z,96715.00
2018-07-19T09:24:23.808Z,96713.00
2018-07-19T09:26:51.777Z,96713.00
2018-07-19T09:29:19.711Z,96714.00
2018-07-19T09:31:47.716Z,96722.00
2018-07-19T09:34:15.629Z,96713.00
2018-07-19T09:36:43.540Z,96722.00
2018-07-19T09:39:12.357Z,96713.00
2018-07-19T09:41:41.329Z,96715.00
2018-07-19T09:44:09.381Z,96721.00
2018-07-19T09:46:37.421Z,96716.00
2018-07-19T09:49:05.439Z,96714.00
2018-07-19T09:51:33.520Z,96709.00
2018-07-19T09:54:01.666Z,96711.00
2018-07-19T09:56:29.866Z,96717.00
2018-07-19T09:58:57.858Z,96710.00
2018-07-19T10:01:25.806Z,96707.00
2018-07-19T10:03:53.761Z,96708.00
2018-07-19T10:06:21.714Z,96704.00
2018-07-19T10:08:49.632Z,96701.00
2018-07-19T10:11:17.575Z,96700.00
2018-07-19T10:13:46.177Z,96696.00
2018-07-19T10:16:13.997Z,96704.00
2018-07-19T10:18:41.999Z,96704.00
2018-07-19T10:21:09.946Z,96704.00
2018-07-19T10:23:37.969Z,96703.00
2018-07-19T10:26:05.831Z,96696.00
2018-07-19T10:28:33.791Z,96698.00
2018-07-19T10:31:01.726Z,96686.00
2018-07-19T10:33:29.649Z,96698.00
2018-07-19T10:35:57.645Z,96694.00
2018-07-19T10:38:25.620Z,96700.00
2018-07-19T10:40:53.551Z,96688.00
2018-07-19T10:43:21.521Z,96687.00
2018-07-19T10:45:49.447Z,96687.00
2018-07-19T10:48:17.409Z,96688.00
2018-07-19T10:50:45.352Z,96683.00
2018-07-19T10:53:13.283Z,96678.00
2018-07-19T10:55:41.252Z,96681.00
2018-07-19T10:58:09.204Z,96688.00
2018-07-19T11:00:37.133Z,96686.00
2018-07-19T11:03:05.285Z,96681.00
2018-07-19T11:05:33.255Z,96680.00
2018-07-19T11:08:01.181Z,96677.00
2018-07-19T11:10:29.129Z,96667.00
2018-07-19T11:12:57.088Z,96661.00
2018-07-19T11:15:25.042Z,96662.00
2018-07-19T11:17:52.996Z,96664.00
2018-07-19T11:20:20.948Z,96658.00
2018-07-19T11:22:48.906Z,96649.00
2018-07-19T11:25:16.821Z,96650.00
2018-07-19T11:27:44.740Z,96647.00
2018-07-19T11:30:12.793Z,96652.00
2018-07-19T11:32:40.733Z,96641.00
2018-07-19T11:35:08.732Z,96633.00
2018-07-19T11:37:36.736Z,96633.00
2018-07-19T11:40:04.706Z,96635.00
2018-07-19T11:42:32.639Z,96633.00
2018-07-19T11:45:00.592Z,96635.00
2018-07-19T11:47:28.558Z,96620.00
2018-07-19T11:49:56.491Z,96628.00
2018-07-19T11:52:24.430Z,96618.00
2018-07-19T11:54:52.380Z,96616.00
2018-07-19T11:57:20.358Z,96621.00
2018-07-19T11:59:48.386Z,96620.00
2018-07-19T12:02:16.314Z,96617.00
2018-07-19T12:04:44.279Z,96612.00
2018-07-19T12:07:12.243Z,96617.00
2018-07-19T12:09:40.205Z,96608.00
2018-07-19T12:12:08.156Z,96598.00
2018-07-19T12:14:36.146Z,96602.00
2018-07-19T12:17:04.088Z,96592.00
2018-07-19T12:19:32.013Z,96593.00
2018-07-19T12:22:00.028Z,96585.00
2018-07-19T12:24:27.953Z,96585.00
2018-07-19T12:26:55.907Z,96586.00
2018-07-19T12:29:23.853Z,96592.00
2018-07-19T12:31:51.858Z,96593.00
2018-07-19T12:34:19.765Z,96579.00
2018-07-19T12:36:47.745Z,96583.00
2018-07-19T12:39:15.666Z,96579.00
2018-07-19T12:41:43.595Z,96577.00
2018-07-19T12:44:11.570Z,96570.00
2018-07-19T12:46:39.536Z,96570.00
2018-07-19T12:49:07.885Z,96564.00
2018-07-19T12:51:36.296Z,96558.00
2018-07-19T12:54:04.264Z,96550.00
2018-07-19T12:56:32.267Z,96550.00
2018-07-19T12:59:00.192Z,96545.00
2018-07-19T13:01:28.140Z,96547.00
2018-07-19T13:03:56.117Z,96542.00
2018-07-19T13:06:24.060Z,96543.00
2018-07-19T13:08:52.301Z,96546.00
2018-07-19T13:11:20.297Z,96540.00
2018-07-19T13:13:48.280Z,96529.00
2018-07-19T13:16:16.200Z,96538.00
2018-07-19T13:18:44.123Z,96534.00
2018-07-19T13:21:12.063Z,96524.00
2018-07-19T13:23:39.993Z,96525.00
2018-07-19T13:26:08.026Z,96534.00
2018-07-19T13:28:35.955Z,96528.00
2018-07-19T13:31:03.872Z,96527.00
2018-07-19T13:33:31.867Z,96533.00
2018-07-19T13:35:59.904Z,96527.00
2018-07-19T13:38:27.925Z,96527.00
2018-07-19T13:40:55.875Z,96523.00
2018-07-19T13:43:23.832Z,96526.00
2018-07-19T13:45:51.788Z,96523.00
2018-07-19T13:48:19.801Z,96524.00
2018-07-19T13:50:47.727Z,96523.00
2018-07-19T13:54:22.463Z,96520.00
2018-07-19T13:56:50.417Z,96521.00
2018-07-19T13:59:18.344Z,96514.00
2018-07-19T14:01:46.317Z,96515.00
2018-07-19T14:04:14.233Z,96507.00
2018-07-19T14:06:42.193Z,96509.00
2018-07-19T14:09:14.902Z,96517.00
2018-07-19T14:11:42.825Z,96513.00
2018-07-19T14:14:10.867Z,96511.00
2018-07-19T14:16:38.794Z,96509.00
2018-07-19T14:19:07.053Z,96510.00
2018-07-19T14:21:35.049Z,96502.00
2018-07-19T14:24:02.997Z,96502.00
2018-07-19T14:26:30.967Z,96495.00
2018-07-19T14:28:58.878Z,96499.00
2018-07-19T14:31:26.837Z,96491.00
2018-07-19T14:33:54.766Z,96479.00
2018-07-19T14:36:22.715Z,96490.00
2018-07-19T14:38:50.676Z,96489.00
2018-07-19T14:41:18.619Z,96401.00
2018-07-19T14:43:46.663Z,96194.00
2018-07-19T14:46:14.581Z,96194.00
2018-07-19T14:48:42.605Z,96193.00
2018-07-19T14:51:11.020Z,96186.00
2018-07-19T14:53:39.100Z,96184.00
2018-07-19T14:56:07.559Z,96178.00
2018-07-19T14:58:35.819Z,96170.00
2018-07-19T15:01:03.771Z,96170.00
2018-07-19T15:03:31.784Z,96167.00
2018-07-19T15:05:59.777Z,96172.00
2018-07-19T15:08:27.729Z,96154.00
2018-07-19T15:10:55.659Z,96163.00
2018-07-19T15:13:23.584Z,96152.00
2018-07-19T15:15:51.539Z,96145.00
2018-07-19T15:18:19.515Z,96153.00
2018-07-19T15:20:47.463Z,96158.00
2018-07-19T15:23:15.397Z,96166.00
2018-07-19T15:25:43.322Z,96161.00
2018-07-19T15:28:11.327Z,96377.00
2018-07-19T15:30:39.325Z,96459.00
2018-07-19T15:33:07.369Z,96461.00
2018-07-19T15:35:35.320Z,96470.00
2018-07-19T15:38:03.315Z,96466.00
2018-07-19T15:40:31.246Z,96464.00
2018-07-19T15:42:59.273Z,96468.00
2018-07-19T15:45:27.237Z,96471.00
2018-07-19T15:47:55.183Z,96470.00
2018-07-19T15:50:23.217Z,96469.00
2018-07-19T15:52:51.088Z,96462.00
2018-07-19T15:55:19.135Z,96460.00
2018-07-19T15:57:47.080Z,96457.00
2018-07-19T16:00:15.041Z,96463.00
2018-07-19T16:02:42.966Z,96470.00
2018-07-19T16:05:10.931Z,96463.00
2018-07-19T16:07:38.853Z,96462.00
2018-07-19T16:10:06.799Z,96461.00
2018-07-19T16:12:34.774Z,96458.00
2018-07-19T16:15:02.719Z,96453.00
2018-07-19T16:17:30.644Z,96457.00
2018-07-19T16:19:58.662Z,96453.00
2018-07-19T16:22:26.623Z,96450.00
2018-07-19T16:24:54.540Z,96449.00
2018-07-19T16:27:22.497Z,96449.00
2018-07-19T16:29:50.419Z,96449.00
2018-07-19T16:32:18.359Z,96450.00
2018-07-19T16:34:46.686Z,96446.00
2018-07-19T16:37:14.617Z,96445.00
2018-07-19T16:39:42.653Z,96443.00
2018-07-19T16:42:10.649Z,96445.00
2018-07-19T16:44:38.624Z,96457.00
2018-07-19T16:47:06.553Z,96451.00
2018-07-19T16:49:34.514Z,96446.00
2018-07-19T16:52:02.478Z,96463.00
2018-07-19T16:54:30.439Z,96501.00
2018-07-19T16:56:58.432Z,96439.00
2018-07-19T16:59:26.368Z,96438.00
2018-07-19T17:01:54.302Z,96439.00
2018-07-19T17:04:22.296Z,96437.00
2018-07-19T17:06:50.240Z,96439.00
2018-07-19T17:09:18.193Z,96436.00
2018-07-19T17:11:46.201Z,96451.00
2018-07-19T17:14:14.123Z,96434.00
2018-07-19T17:16:42.054Z,96443.00
2018-07-19T17:19:10.068Z,96455.00
2018-07-19T17:21:37.985Z,96444.00
2018-07-19T17:24:05.941Z,96438.00
2018-07-19T17:26:33.913Z,96438.00
2018-07-19T17:29:01.886Z,96459.00
2018-07-19T17:31:29.817Z,96460.00
2018-07-19T17:33:57.788Z,96464.00
2018-07-19T17:36:25.714Z,96461.00
2018-07-19T17:38:53.629Z,96457.00
2018-07-19T17:41:21.606Z,96454.00
2018-07-19T17:43:49.583Z,96456.00
2018-07-19T17:46:17.929Z,96458.00
2018-07-19T17:48:45.888Z,96489.00
2018-07-19T17:51:13.813Z,96467.00
2018-07-19T17:53:41.735Z,96466.00
2018-07-19T17:56:09.705Z,96476.00
2018-07-19T17:58:37.643Z,96478.00
2018-07-19T18:01:05.567Z,96483.00
2018-07-19T18:03:34.040Z,96468.00
2018-07-19T18:06:01.979Z,96505.00
2018-07-19T18:08:29.925Z,96513.00
2018-07-19T18:10:57.955Z,96513.00
2018-07-19T18:13:25.835Z,96508.00
2018-07-19T18:15:53.801Z,96514.00
2018-07-19T18:18:21.731Z,96519.00
2018-07-19T18:20:49.666Z,96517.00
2018-07-19T18:23:17.593Z,96512.00
2018-07-19T18:25:45.604Z,96515.00
2018-07-19T18:28:13.543Z,96519.00
2018-07-19T18:30:41.501Z,96522.00
2018-07-19T18:33:09.487Z,96526.00
2018-07-19T18:35:37.398Z,96523.00
2018-07-19T18:38:05.792Z,96536.00
2018-07-19T18:40:33.721Z,96526.00
2018-07-19T18:43:01.690Z,96528.00
2018-07-19T18:45:29.678Z,96529.00
2018-07-19T18:47:57.682Z,96530.00
2018-07-19T18:50:25.590Z,96532.00
2018-07-19T18:52:53.495Z,96538.00
2018-07-19T18:55:21.459Z,96535.00
2018-07-19T18:57:49.408Z,96535.00
2018-07-19T19:00:17.370Z,96536.00
2018-07-19T19:02:45.301Z,96539.00
2018-07-19T19:05:13.221Z,96540.00
2018-07-19T19:07:41.198Z,96539.00
2018-07-19T19:10:09.148Z,96542.00
2018-07-19T19:12:37.063Z,96545.00
2018-07-19T19:15:06.428Z,96540.00
2018-07-19T19:17:34.339Z,96547.00
2018-07-19T19:20:02.716Z,96547.00
2018-07-19T19:22:30.622Z,96551.00
2018-07-19T19:24:58.692Z,96548.00
2018-07-19T19:27:26.660Z,96553.00
2018-07-19T19:29:54.582Z,96546.00
2018-07-19T19:32:22.544Z,96555.00
2018-07-19T19:34:50.472Z,96553.00
2018-07-19T19:37:18.414Z,96551.00
2018-07-19T19:39:46.353Z,96547.00
2018-07-19T19:42:14.282Z,96548.00
2018-07-19T19:44:42.237Z,96546.00
2018-07-19T19:47:10.211Z,96560.00
2018-07-19T19:49:38.182Z,96557.00
2018-07-19T19:52:06.165Z,96562.00
2018-07-19T19:54:34.139Z,96553.00
2018-07-19T19:57:02.088Z,96565.00
2018-07-19T19:59:30.002Z,96560.00
2018-07-19T20:01:58.044Z,96566.00
2018-07-19T20:04:25.981Z,96567.00
2018-07-19T20:06:53.910Z,96568.00
2018-07-19T20:09:21.904Z,96560.00
2018-07-19T20:11:49.888Z,96569.00
2018-07-19T20:14:17.865Z,96575.00
2018-07-19T20:16:45.820Z,96573.00
2018-07-19T20:19:13.769Z,96573.00
2018-07-19T20:21:41.748Z,96566.00
2018-07-19T20:24:09.702Z,96572.00
2018-07-19T20:26:37.862Z,96570.00
2018-07-19T20:29:05.912Z,96568.00
2018-07-19T20:31:33.892Z,96563.00
2018-07-19T20:34:01.864Z,96558.00
2018-07-19T20:36:29.811Z,96560.00
2018-07-19T20:38:57.858Z,96554.00
2018-07-19T20:41:25.766Z,96560.00
2018-07-19T20:43:55.378Z,96553.00
2018-07-19T20:46:24.522Z,96556.00
2018-07-19T20:48:53.925Z,96557.00
2018-07-19T20:51:22.637Z,96559.00
2018-07-19T20:53:52.620Z,96549.00
2018-07-19T20:56:22.607Z,96553.00
2018-07-19T20:58:53.282Z,96545.00
2018-07-19T21:01:23.074Z,96558.00
2018-07-19T21:03:52.904Z,96553.00
2018-07-19T21:06:20.891Z,96546.00
2018-07-19T21:08:48.817Z,96549.00
2018-07-19T21:11:16.768Z,96547.00
2018-07-19T21:13:45.113Z,96548.00
2018-07-19T21:16:13.087Z,96547.00
2018-07-19T21:18:41.012Z,96556.00
2018-07-19T21:21:08.997Z,96552.00
2018-07-19T21:23:36.942Z,96559.00
2018-07-19T21:26:07.907Z,96555.00
2018-07-19T21:28:36.773Z,96560.00
2018-07-19T21:31:04.816Z,96556.00
2018-07-19T21:33:32.770Z,96560.00
2018-07-19T21:36:00.742Z,96552.00
2018-07-19T21:38:28.766Z,96552.00
2018-07-19T21:40:58.175Z,96547.00
2018-07-19T21:43:26.122Z,96556.00
2018-07-19T21:45:54.066Z,96555.00
2018-07-19T21:48:22.039Z,96556.00
2018-07-19T21:50:49.986Z,96560.00
2018-07-19T21:53:17.906Z,96564.00
2018-07-19T21:55:45.855Z,96561.00
2018-07-19T21:58:13.873Z,96551.00
2018-07-19T22:01:00.110Z,96558.00
2018-07-19T22:03:28.102Z,96553.00
2018-07-19T22:05:56.011Z,96556.00
2018-07-19T22:08:24.015Z,96554.00
2018-07-19T22:10:51.952Z,96554.00
2018-07-19T22:13:19.971Z,96560.00
2018-07-19T22:15:47.910Z,96558.00
2018-07-19T22:18:15.863Z,96550.00
2018-07-19T22:20:43.872Z,96556.00
2018-07-19T22:23:11.793Z,96554.00
2018-07-19T22:25:39.714Z,96561.00
2018-07-19T22:28:07.719Z,96565.00
2018-07-19T22:30:36.001Z,96560.00
2018-07-19T22:33:04.082Z,96558.00
2018-07-19T22:35:32.004Z,96561.00
2018-07-19T22:37:59.941Z,96561.00
2018-07-19T22:40:27.885Z,96557.00
2018-07-19T22:42:55.821Z,96560.00
2018-07-19T22:45:23.860Z,96555.00
2018-07-19T22:47:51.796Z,96550.00
2018-07-19T22:50:19.707Z,96550.00
2018-07-19T22:52:47.881Z,96547.00
2018-07-19T22:55:15.765Z,96552.00
2018-07-19T22:57:43.743Z,96554.00
2018-07-19T23:00:11.675Z,96555.00
2018-07-19T23:02:39.753Z,96554.00
2018-07-19T23:05:07.825Z,96551.00
2018-07-19T23:07:35.856Z,96554.00
2018-07-19T23:10:04.074Z,96560.00
2018-07-19T23:12:31.993Z,96560.00
2018-07-19T23:15:00.033Z,96563.00
2018-07-19T23:17:28.037Z,96560.00
2018-07-19T23:19:55.978Z,96553.00
2018-07-19T23:22:23.983Z,96546.00
2018-07-19T23:24:51.940Z,96552.00
2018-07-19T23:27:20.001Z,96555.00
2018-07-19T23:29:47.979Z,96542.00
2018-07-19T23:32:15.952Z,96537.00
2018-07-19T23:34:44.470Z,96534.00
2018-07-19T23:37:21.409Z,96532.00
2018-07-19T23:39:52.441Z,96528.00
2018-07-19T23:42:41.535Z,96532.00
2018-07-19T23:45:35.071Z,96536.00
2018-07-19T23:48:03.064Z,96525.00
2018-07-19T23:50:31.019Z,96534.00
2018-07-19T23:52:58.968Z,96531.00
2018-07-19T23:55:26.943Z,96526.00
2018-07-19T23:57:54.876Z,96522.00
